Station Historical Data
Daily Summary for January 18, 2017 Units:  Both    English   Metric
« Previous Day
Next Day »
Daily Weekly Monthly Yearly Custom
  High: Low: Average:
Temperature: 38.0 °F /  3.3 °C 35.3 °F /  1.8 °C 36 °F /  2.2 °C
Dew Point: 37.0 °F /  2.8 °C 34.0 °F /  1.1 °C 34.8 °F /  1.6 °C
Humidity: 96% 94% 95%
Wind Speed: 14.0mph /  22.5km/h - 6.9mph /  11.1km/h
Wind Gust: 20.0mph /  32.2km/h - -
Wind- - WSW
Pressure: 30.06 in /  1017.8 hPa 29.83 in /  1010 hPa -
Precipitation: 0.00 in /  0 mm    
Historical Graphs
 
 
Tabular Data for January 18, 2017
Time Temperature Dew Point Pressure Wind Wind Speed Wind Gust Humidity Rainfall Rate (Hourly)
00:04 38.0 °F /  3.3 °C 36.7 °F /  2.6 °C 29.83in /  1010hPa West 5.0mph /  8km/h 12.0mph /  19.3km/h 95% 0.01in /  0.25mm
00:09 38.0 °F /  3.3 °C 37.0 °F /  2.8 °C 29.83in /  1010hPa SW 6.0mph /  9.7km/h 12.0mph /  19.3km/h 96% 0.01in /  0.25mm
00:14 38.0 °F /  3.3 °C 37.0 °F /  2.8 °C 29.84in /  1010.4hPa WSW 6.0mph /  9.7km/h 15.0mph /  24.1km/h 96% 0.01in /  0.25mm
00:19 38.0 °F /  3.3 °C 37.0 °F /  2.8 °C 29.84in /  1010.4hPa WSW 7.0mph /  11.3km/h 15.0mph /  24.1km/h 96% 0.01in /  0.25mm
00:24 38.0 °F /  3.3 °C 37.0 °F /  2.8 °C 29.84in /  1010.4hPa WSW 6.0mph /  9.7km/h 13.0mph /  20.9km/h 96% 0.01in /  0.25mm
00:29 37.9 °F /  3.3 °C 36.6 °F /  2.6 °C 29.84in /  1010.4hPa WSW 6.0mph /  9.7km/h 13.0mph /  20.9km/h 95% 0.00in /  0mm
00:34 37.8 °F /  3.2 °C 36.5 °F /  2.5 °C 29.84in /  1010.4hPa WSW 7.0mph /  11.3km/h 13.0mph /  20.9km/h 95% 0.00in /  0mm
00:39 37.7 °F /  3.2 °C 36.4 °F /  2.4 °C 29.84in /  1010.4hPa WSW 7.0mph /  11.3km/h 13.0mph /  20.9km/h 95% 0.00in /  0mm
00:44 37.6 °F /  3.1 °C 36.3 °F /  2.4 °C 29.84in /  1010.4hPa WSW 6.0mph /  9.7km/h 10.0mph /  16.1km/h 95% 0.00in /  0mm
00:49 37.6 °F /  3.1 °C 36.3 °F /  2.4 °C 29.84in /  1010.4hPa SW 4.0mph /  6.4km/h 13.0mph /  20.9km/h 95% 0.00in /  0mm
00:54 37.5 °F /  3.1 °C 36.2 °F /  2.3 °C 29.84in /  1010.4hPa WSW 6.0mph /  9.7km/h 14.0mph /  22.5km/h 95% 0.00in /  0mm
00:59 37.4 °F /  3 °C 36.4 °F /  2.4 °C 29.84in /  1010.4hPa WSW 6.0mph /  9.7km/h 10.0mph /  16.1km/h 96% 0.00in /  0mm
01:04 37.5 °F /  3.1 °C 36.5 °F /  2.5 °C 29.84in /  1010.4hPa WSW 9.0mph /  14.5km/h 10.0mph /  16.1km/h 96% 0.00in /  0mm
01:09 37.5 °F /  3.1 °C 36.5 °F /  2.5 °C 29.84in /  1010.4hPa WSW 6.0mph /  9.7km/h 11.0mph /  17.7km/h 96% 0.00in /  0mm
01:14 37.4 °F /  3 °C 36.4 °F /  2.4 °C 29.85in /  1010.7hPa SW 6.0mph /  9.7km/h 9.0mph /  14.5km/h 96% 0.00in /  0mm
01:24 37.4 °F /  3 °C 36.4 °F /  2.4 °C 29.85in /  1010.7hPa WSW 6.0mph /  9.7km/h 14.0mph /  22.5km/h 96% 0.00in /  0mm
01:29 37.3 °F /  2.9 °C 36.3 °F /  2.4 °C 29.85in /  1010.7hPa WSW 6.0mph /  9.7km/h 14.0mph /  22.5km/h 96% 0.00in /  0mm
01:34 37.2 °F /  2.9 °C 36.2 °F /  2.3 °C 29.85in /  1010.7hPa WSW 6.0mph /  9.7km/h 13.0mph /  20.9km/h 96% 0.00in /  0mm
01:39 37.2 °F /  2.9 °C 36.2 °F /  2.3 °C 29.85in /  1010.7hPa WSW 6.0mph /  9.7km/h 13.0mph /  20.9km/h 96% 0.00in /  0mm
01:44 37.1 °F /  2.8 °C 35.8 °F /  2.1 °C 29.85in /  1010.7hPa SW 6.0mph /  9.7km/h 13.0mph /  20.9km/h 95% 0.00in /  0mm
01:49 37.0 °F /  2.8 °C 35.7 °F /  2.1 °C 29.86in /  1011.1hPa WSW 14.0mph /  22.5km/h 15.0mph /  24.1km/h 95% 0.00in /  0mm
01:54 37.0 °F /  2.8 °C 35.7 °F /  2.1 °C 29.86in /  1011.1hPa WSW 5.0mph /  8km/h 14.0mph /  22.5km/h 95% 0.01in /  0.25mm
01:59 36.9 °F /  2.7 °C 35.9 °F /  2.2 °C 29.86in /  1011.1hPa SW 6.0mph /  9.7km/h 9.0mph /  14.5km/h 96% 0.01in /  0.25mm
02:04 36.8 °F /  2.7 °C 35.8 °F /  2.1 °C 29.86in /  1011.1hPa WSW 6.0mph /  9.7km/h 11.0mph /  17.7km/h 96% 0.01in /  0.25mm
02:09 36.7 °F /  2.6 °C 35.7 °F /  2.1 °C 29.86in /  1011.1hPa WSW 6.0mph /  9.7km/h 11.0mph /  17.7km/h 96% 0.01in /  0.25mm
02:14 36.7 °F /  2.6 °C 35.4 °F /  1.9 °C 29.86in /  1011.1hPa WSW 3.0mph /  4.8km/h 11.0mph /  17.7km/h 95% 0.01in /  0.25mm
02:19 36.6 °F /  2.6 °C 35.3 °F /  1.8 °C 29.86in /  1011.1hPa SW 7.0mph /  11.3km/h 11.0mph /  17.7km/h 95% 0.01in /  0.25mm
02:24 36.5 °F /  2.5 °C 35.2 °F /  1.8 °C 29.87in /  1011.4hPa WSW 8.0mph /  12.9km/h 12.0mph /  19.3km/h 95% 0.01in /  0.25mm
02:29 36.5 °F /  2.5 °C 35.2 °F /  1.8 °C 29.87in /  1011.4hPa SW 7.0mph /  11.3km/h 15.0mph /  24.1km/h 95% 0.01in /  0.25mm
02:34 36.4 °F /  2.4 °C 35.1 °F /  1.7 °C 29.87in /  1011.4hPa WSW 8.0mph /  12.9km/h 15.0mph /  24.1km/h 95% 0.01in /  0.25mm
02:39 36.4 °F /  2.4 °C 35.4 °F /  1.9 °C 29.87in /  1011.4hPa WSW 6.0mph /  9.7km/h 14.0mph /  22.5km/h 96% 0.01in /  0.25mm
02:44 36.4 °F /  2.4 °C 35.4 °F /  1.9 °C 29.87in /  1011.4hPa WSW 6.0mph /  9.7km/h 11.0mph /  17.7km/h 96% 0.01in /  0.25mm
02:49 36.6 °F /  2.6 °C 35.6 °F /  2 °C 29.87in /  1011.4hPa SW 8.0mph /  12.9km/h 13.0mph /  20.9km/h 96% 0.01in /  0.25mm
02:54 36.7 °F /  2.6 °C 35.7 °F /  2.1 °C 29.87in /  1011.4hPa WSW 9.0mph /  14.5km/h 14.0mph /  22.5km/h 96% 0.00in /  0mm
02:59 36.7 °F /  2.6 °C 35.7 °F /  2.1 °C 29.87in /  1011.4hPa WSW 8.0mph /  12.9km/h 14.0mph /  22.5km/h 96% 0.00in /  0mm
03:04 36.8 °F /  2.7 °C 35.8 °F /  2.1 °C 29.87in /  1011.4hPa WSW 8.0mph /  12.9km/h 12.0mph /  19.3km/h 96% 0.00in /  0mm
03:09 36.9 °F /  2.7 °C 35.9 °F /  2.2 °C 29.87in /  1011.4hPa West 5.0mph /  8km/h 14.0mph /  22.5km/h 96% 0.00in /  0mm
03:14 36.9 °F /  2.7 °C 35.9 °F /  2.2 °C 29.87in /  1011.4hPa WSW 7.0mph /  11.3km/h 15.0mph /  24.1km/h 96% 0.00in /  0mm
03:19 36.9 °F /  2.7 °C 35.9 °F /  2.2 °C 29.88in /  1011.7hPa WSW 9.0mph /  14.5km/h 13.0mph /  20.9km/h 96% 0.00in /  0mm
03:24 36.9 °F /  2.7 °C 35.9 °F /  2.2 °C 29.88in /  1011.7hPa WSW 4.0mph /  6.4km/h 10.0mph /  16.1km/h 96% 0.00in /  0mm
03:29 36.9 °F /  2.7 °C 35.9 °F /  2.2 °C 29.88in /  1011.7hPa SW 4.0mph /  6.4km/h 14.0mph /  22.5km/h 96% 0.00in /  0mm
03:34 36.9 °F /  2.7 °C 35.9 °F /  2.2 °C 29.88in /  1011.7hPa WSW 7.0mph /  11.3km/h 16.0mph /  25.7km/h 96% 0.00in /  0mm
03:39 36.9 °F /  2.7 °C 35.9 °F /  2.2 °C 29.88in /  1011.7hPa WSW 7.0mph /  11.3km/h 16.0mph /  25.7km/h 96% 0.00in /  0mm
03:44 36.8 °F /  2.7 °C 35.8 °F /  2.1 °C 29.88in /  1011.7hPa WSW 6.0mph /  9.7km/h 11.0mph /  17.7km/h 96% 0.00in /  0mm
03:49 36.7 °F /  2.6 °C 35.4 °F /  1.9 °C 29.88in /  1011.7hPa SW 7.0mph /  11.3km/h 14.0mph /  22.5km/h 95% 0.00in /  0mm
03:54 36.6 °F /  2.6 °C 35.6 °F /  2 °C 29.88in /  1011.7hPa WSW 6.0mph /  9.7km/h 12.0mph /  19.3km/h 96% 0.00in /  0mm
03:59 36.5 °F /  2.5 °C 35.5 °F /  1.9 °C 29.88in /  1011.7hPa WSW 7.0mph /  11.3km/h 14.0mph /  22.5km/h 96% 0.00in /  0mm
04:04 36.5 °F /  2.5 °C 35.5 °F /  1.9 °C 29.89in /  1012.1hPa SW 6.0mph /  9.7km/h 12.0mph /  19.3km/h 96% 0.00in /  0mm
04:09 36.4 °F /  2.4 °C 35.4 °F /  1.9 °C 29.89in /  1012.1hPa SW 5.0mph /  8km/h 12.0mph /  19.3km/h 96% 0.00in /  0mm
04:14 36.4 °F /  2.4 °C 35.4 °F /  1.9 °C 29.89in /  1012.1hPa WSW 9.0mph /  14.5km/h 12.0mph /  19.3km/h 96% 0.00in /  0mm
04:19 36.3 °F /  2.4 °C 35.3 °F /  1.8 °C 29.89in /  1012.1hPa SW 5.0mph /  8km/h 13.0mph /  20.9km/h 96% 0.00in /  0mm
04:24 36.3 °F /  2.4 °C 35.3 °F /  1.8 °C 29.89in /  1012.1hPa WSW 7.0mph /  11.3km/h 15.0mph /  24.1km/h 96% 0.01in /  0.25mm
04:29 36.2 °F /  2.3 °C 35.2 °F /  1.8 °C 29.89in /  1012.1hPa WSW 8.0mph /  12.9km/h 15.0mph /  24.1km/h 96% 0.01in /  0.25mm
04:34 36.2 °F /  2.3 °C 35.2 °F /  1.8 °C 29.89in /  1012.1hPa WSW 7.0mph /  11.3km/h 15.0mph /  24.1km/h 96% 0.01in /  0.25mm
04:39 36.1 °F /  2.3 °C 35.1 °F /  1.7 °C 29.90in /  1012.4hPa WSW 6.0mph /  9.7km/h 15.0mph /  24.1km/h 96% 0.01in /  0.25mm
04:44 36.1 °F /  2.3 °C 35.1 °F /  1.7 °C 29.90in /  1012.4hPa WSW 7.0mph /  11.3km/h 12.0mph /  19.3km/h 96% 0.01in /  0.25mm
04:49 36.1 °F /  2.3 °C 35.1 °F /  1.7 °C 29.90in /  1012.4hPa WSW 6.0mph /  9.7km/h 12.0mph /  19.3km/h 96% 0.01in /  0.25mm
04:54 36.0 °F /  2.2 °C 35.0 °F /  1.7 °C 29.90in /  1012.4hPa SW 7.0mph /  11.3km/h 17.0mph /  27.4km/h 96% 0.01in /  0.25mm
04:59 35.9 °F /  2.2 °C 34.9 °F /  1.6 °C 29.90in /  1012.4hPa SW 4.0mph /  6.4km/h 11.0mph /  17.7km/h 96% 0.02in /  0.51mm
05:04 35.9 °F /  2.2 °C 34.9 °F /  1.6 °C 29.90in /  1012.4hPa SW 5.0mph /  8km/h 11.0mph /  17.7km/h 96% 0.02in /  0.51mm
05:09 35.9 °F /  2.2 °C 34.9 °F /  1.6 °C 29.90in /  1012.4hPa WSW 6.0mph /  9.7km/h 15.0mph /  24.1km/h 96% 0.02in /  0.51mm
05:14 35.9 °F /  2.2 °C 34.9 °F /  1.6 °C 29.91in /  1012.8hPa West 8.0mph /  12.9km/h 12.0mph /  19.3km/h 96% 0.03in /  0.76mm
05:19 35.8 °F /  2.1 °C 34.8 °F /  1.6 °C 29.91in /  1012.8hPa WSW 7.0mph /  11.3km/h 14.0mph /  22.5km/h 96% 0.03in /  0.76mm
05:24 35.8 °F /  2.1 °C 34.8 °F /  1.6 °C 29.91in /  1012.8hPa SW 5.0mph /  8km/h 12.0mph /  19.3km/h 96% 0.02in /  0.51mm
05:29 35.7 °F /  2.1 °C 34.7 °F /  1.5 °C 29.91in /  1012.8hPa WSW 7.0mph /  11.3km/h 15.0mph /  24.1km/h 96% 0.02in /  0.51mm
05:34 35.8 °F /  2.1 °C 34.8 °F /  1.6 °C 29.91in /  1012.8hPa WSW 6.0mph /  9.7km/h 15.0mph /  24.1km/h 96% 0.03in /  0.76mm
05:39 35.8 °F /  2.1 °C 34.8 °F /  1.6 °C 29.92in /  1013.1hPa WSW 6.0mph /  9.7km/h 15.0mph /  24.1km/h 96% 0.03in /  0.76mm
05:44 35.9 °F /  2.2 °C 34.9 °F /  1.6 °C 29.92in /  1013.1hPa WSW 6.0mph /  9.7km/h 16.0mph /  25.7km/h 96% 0.03in /  0.76mm
05:49 35.9 °F /  2.2 °C 34.9 °F /  1.6 °C 29.92in /  1013.1hPa WSW 7.0mph /  11.3km/h 16.0mph /  25.7km/h 96% 0.03in /  0.76mm
05:54 35.9 °F /  2.2 °C 34.9 °F /  1.6 °C 29.92in /  1013.1hPa WSW 8.0mph /  12.9km/h 17.0mph /  27.4km/h 96% 0.03in /  0.76mm
05:59 35.8 °F /  2.1 °C 34.8 °F /  1.6 °C 29.92in /  1013.1hPa SW 7.0mph /  11.3km/h 15.0mph /  24.1km/h 96% 0.02in /  0.51mm
06:04 35.8 °F /  2.1 °C 34.8 °F /  1.6 °C 29.92in /  1013.1hPa WSW 7.0mph /  11.3km/h 15.0mph /  24.1km/h 96% 0.02in /  0.51mm
06:09 35.8 °F /  2.1 °C 34.8 °F /  1.6 °C 29.92in /  1013.1hPa West 4.0mph /  6.4km/h 13.0mph /  20.9km/h 96% 0.02in /  0.51mm
06:14 35.7 °F /  2.1 °C 34.7 °F /  1.5 °C 29.92in /  1013.1hPa WSW 5.0mph /  8km/h 13.0mph /  20.9km/h 96% 0.01in /  0.25mm
06:19 35.6 °F /  2 °C 34.6 °F /  1.4 °C 29.93in /  1013.4hPa WSW 4.0mph /  6.4km/h 16.0mph /  25.7km/h 96% 0.01in /  0.25mm
06:24 35.6 °F /  2 °C 34.6 °F /  1.4 °C 29.93in /  1013.4hPa NW 5.0mph /  8km/h 17.0mph /  27.4km/h 96% 0.01in /  0.25mm
06:29 35.6 °F /  2 °C 34.6 °F /  1.4 °C 29.93in /  1013.4hPa WSW 10.0mph /  16.1km/h 15.0mph /  24.1km/h 96% 0.02in /  0.51mm
06:34 35.5 °F /  1.9 °C 34.5 °F /  1.4 °C 29.93in /  1013.4hPa WSW 8.0mph /  12.9km/h 15.0mph /  24.1km/h 96% 0.01in /  0.25mm
06:39 35.6 °F /  2 °C 34.6 °F /  1.4 °C 29.93in /  1013.4hPa WSW 7.0mph /  11.3km/h 14.0mph /  22.5km/h 96% 0.01in /  0.25mm
06:44 35.6 °F /  2 °C 34.6 °F /  1.4 °C 29.93in /  1013.4hPa WSW 7.0mph /  11.3km/h 16.0mph /  25.7km/h 96% 0.01in /  0.25mm
06:49 35.6 °F /  2 °C 34.6 °F /  1.4 °C 29.93in /  1013.4hPa SSW 11.0mph /  17.7km/h 17.0mph /  27.4km/h 96% 0.01in /  0.25mm
06:54 35.6 °F /  2 °C 34.6 °F /  1.4 °C 29.93in /  1013.4hPa WNW 6.0mph /  9.7km/h 15.0mph /  24.1km/h 96% 0.01in /  0.25mm
06:59 35.7 °F /  2.1 °C 34.7 °F /  1.5 °C 29.93in /  1013.4hPa SW 9.0mph /  14.5km/h 15.0mph /  24.1km/h 96% 0.01in /  0.25mm
07:04 35.6 °F /  2 °C 34.6 °F /  1.4 °C 29.93in /  1013.4hPa WSW 8.0mph /  12.9km/h 17.0mph /  27.4km/h 96% 0.01in /  0.25mm
07:09 35.6 °F /  2 °C 34.6 °F /  1.4 °C 29.93in /  1013.4hPa WSW 9.0mph /  14.5km/h 17.0mph /  27.4km/h 96% 0.01in /  0.25mm
07:14 35.6 °F /  2 °C 34.6 °F /  1.4 °C 29.93in /  1013.4hPa WSW 8.0mph /  12.9km/h 16.0mph /  25.7km/h 96% 0.01in /  0.25mm
07:19 35.7 °F /  2.1 °C 34.7 °F /  1.5 °C 29.93in /  1013.4hPa WSW 6.0mph /  9.7km/h 14.0mph /  22.5km/h 96% 0.01in /  0.25mm
07:24 35.6 °F /  2 °C 34.6 °F /  1.4 °C 29.93in /  1013.4hPa WSW 11.0mph /  17.7km/h 14.0mph /  22.5km/h 96% 0.01in /  0.25mm
07:29 35.6 °F /  2 °C 34.6 °F /  1.4 °C 29.94in /  1013.8hPa West 6.0mph /  9.7km/h 14.0mph /  22.5km/h 96% 0.00in /  0mm
07:34 35.6 °F /  2 °C 34.6 °F /  1.4 °C 29.94in /  1013.8hPa WSW 8.0mph /  12.9km/h 17.0mph /  27.4km/h 96% 0.00in /  0mm
07:39 35.6 °F /  2 °C 34.6 °F /  1.4 °C 29.94in /  1013.8hPa WSW 8.0mph /  12.9km/h 17.0mph /  27.4km/h 96% 0.00in /  0mm
07:44 35.5 °F /  1.9 °C 34.5 °F /  1.4 °C 29.93in /  1013.4hPa WSW 7.0mph /  11.3km/h 15.0mph /  24.1km/h 96% 0.00in /  0mm
07:49 35.5 °F /  1.9 °C 34.5 °F /  1.4 °C 29.93in /  1013.4hPa WSW 8.0mph /  12.9km/h 15.0mph /  24.1km/h 96% 0.00in /  0mm
07:54 35.5 °F /  1.9 °C 34.5 °F /  1.4 °C 29.93in /  1013.4hPa WSW 7.0mph /  11.3km/h 14.0mph /  22.5km/h 96% 0.00in /  0mm
07:59 35.6 °F /  2 °C 34.6 °F /  1.4 °C 29.94in /  1013.8hPa West 11.0mph /  17.7km/h 14.0mph /  22.5km/h 96% 0.00in /  0mm
08:04 35.5 °F /  1.9 °C 34.5 °F /  1.4 °C 29.94in /  1013.8hPa WSW 7.0mph /  11.3km/h 14.0mph /  22.5km/h 96% 0.00in /  0mm
08:09 35.6 °F /  2 °C 34.6 °F /  1.4 °C 29.94in /  1013.8hPa WSW 7.0mph /  11.3km/h 14.0mph /  22.5km/h 96% 0.00in /  0mm
08:14 35.6 °F /  2 °C 34.6 °F /  1.4 °C 29.94in /  1013.8hPa WSW 7.0mph /  11.3km/h 14.0mph /  22.5km/h 96% 0.00in /  0mm
08:19 35.6 °F /  2 °C 34.6 °F /  1.4 °C 29.94in /  1013.8hPa WSW 6.0mph /  9.7km/h 14.0mph /  22.5km/h 96% 0.00in /  0mm
08:24 35.6 °F /  2 °C 34.6 °F /  1.4 °C 29.94in /  1013.8hPa West 5.0mph /  8km/h 15.0mph /  24.1km/h 96% 0.00in /  0mm
08:29 35.6 °F /  2 °C 34.6 °F /  1.4 °C 29.95in /  1014.1hPa WSW 6.0mph /  9.7km/h 14.0mph /  22.5km/h 96% 0.00in /  0mm
08:34 35.6 °F /  2 °C 34.6 °F /  1.4 °C 29.95in /  1014.1hPa West 5.0mph /  8km/h 14.0mph /  22.5km/h 96% 0.00in /  0mm
08:39 35.5 °F /  1.9 °C 34.5 °F /  1.4 °C 29.95in /  1014.1hPa WSW 7.0mph /  11.3km/h 14.0mph /  22.5km/h 96% 0.00in /  0mm
08:44 35.6 °F /  2 °C 34.6 °F /  1.4 °C 29.96in /  1014.4hPa WSW 13.0mph /  20.9km/h 17.0mph /  27.4km/h 96% 0.00in /  0mm
08:49 35.5 °F /  1.9 °C 34.5 °F /  1.4 °C 29.96in /  1014.4hPa WNW 5.0mph /  8km/h 17.0mph /  27.4km/h 96% 0.00in /  0mm
08:54 35.5 °F /  1.9 °C 34.5 °F /  1.4 °C 29.97in /  1014.8hPa SW 6.0mph /  9.7km/h 17.0mph /  27.4km/h 96% 0.00in /  0mm
08:59 35.5 °F /  1.9 °C 34.2 °F /  1.2 °C 29.97in /  1014.8hPa WSW 14.0mph /  22.5km/h 14.0mph /  22.5km/h 95% 0.00in /  0mm
09:04 35.5 °F /  1.9 °C 34.2 °F /  1.2 °C 29.97in /  1014.8hPa WNW 7.0mph /  11.3km/h 14.0mph /  22.5km/h 95% 0.00in /  0mm
09:09 35.5 °F /  1.9 °C 34.2 °F /  1.2 °C 29.97in /  1014.8hPa WSW 8.0mph /  12.9km/h 15.0mph /  24.1km/h 95% 0.00in /  0mm
09:14 35.5 °F /  1.9 °C 34.5 °F /  1.4 °C 29.97in /  1014.8hPa WSW 8.0mph /  12.9km/h 15.0mph /  24.1km/h 96% 0.00in /  0mm
09:19 35.5 °F /  1.9 °C 34.5 °F /  1.4 °C 29.98in /  1015.1hPa WSW 7.0mph /  11.3km/h 13.0mph /  20.9km/h 96% 0.00in /  0mm
09:24 35.6 °F /  2 °C 34.6 °F /  1.4 °C 29.98in /  1015.1hPa SW 7.0mph /  11.3km/h 14.0mph /  22.5km/h 96% 0.00in /  0mm
09:29 35.6 °F /  2 °C 34.6 °F /  1.4 °C 29.98in /  1015.1hPa South 7.0mph /  11.3km/h 11.0mph /  17.7km/h 96% 0.00in /  0mm
09:34 35.6 °F /  2 °C 34.6 °F /  1.4 °C 29.98in /  1015.1hPa SW 12.0mph /  19.3km/h 14.0mph /  22.5km/h 96% 0.00in /  0mm
09:39 35.7 °F /  2.1 °C 34.7 °F /  1.5 °C 29.98in /  1015.1hPa WSW 7.0mph /  11.3km/h 14.0mph /  22.5km/h 96% 0.00in /  0mm
09:44 35.7 °F /  2.1 °C 34.7 °F /  1.5 °C 29.99in /  1015.5hPa WSW 7.0mph /  11.3km/h 13.0mph /  20.9km/h 96% 0.00in /  0mm
09:49 35.8 °F /  2.1 °C 34.8 °F /  1.6 °C 29.99in /  1015.5hPa WSW 7.0mph /  11.3km/h 13.0mph /  20.9km/h 96% 0.00in /  0mm
09:54 35.8 °F /  2.1 °C 34.5 °F /  1.4 °C 29.99in /  1015.5hPa WSW 7.0mph /  11.3km/h 13.0mph /  20.9km/h 95% 0.00in /  0mm
09:59 35.9 °F /  2.2 °C 34.6 °F /  1.4 °C 29.99in /  1015.5hPa WSW 9.0mph /  14.5km/h 13.0mph /  20.9km/h 95% 0.00in /  0mm
10:04 35.8 °F /  2.1 °C 34.5 °F /  1.4 °C 29.99in /  1015.5hPa WSW 5.0mph /  8km/h 20.0mph /  32.2km/h 95% 0.00in /  0mm
10:09 35.9 °F /  2.2 °C 34.6 °F /  1.4 °C 30.00in /  1015.8hPa WSW 7.0mph /  11.3km/h 20.0mph /  32.2km/h 95% 0.00in /  0mm
10:14 35.9 °F /  2.2 °C 34.6 °F /  1.4 °C 30.00in /  1015.8hPa WSW 7.0mph /  11.3km/h 18.0mph /  29km/h 95% 0.00in /  0mm
10:19 35.9 °F /  2.2 °C 34.6 °F /  1.4 °C 30.00in /  1015.8hPa West 7.0mph /  11.3km/h 14.0mph /  22.5km/h 95% 0.00in /  0mm
10:44 36.0 °F /  2.2 °C 34.7 °F /  1.5 °C 30.01in /  1016.1hPa WSW 7.0mph /  11.3km/h 13.0mph /  20.9km/h 95% 0.00in /  0mm
10:49 35.9 °F /  2.2 °C 34.6 °F /  1.4 °C 30.01in /  1016.1hPa WSW 7.0mph /  11.3km/h 13.0mph /  20.9km/h 95% 0.00in /  0mm
10:54 36.0 °F /  2.2 °C 34.7 °F /  1.5 °C 30.01in /  1016.1hPa West 7.0mph /  11.3km/h 12.0mph /  19.3km/h 95% 0.00in /  0mm
11:09 36.1 °F /  2.3 °C 34.8 °F /  1.6 °C 30.01in /  1016.1hPa WSW 6.0mph /  9.7km/h 15.0mph /  24.1km/h 95% 0.00in /  0mm
11:14 36.1 °F /  2.3 °C 34.8 °F /  1.6 °C 30.00in /  1015.8hPa WSW 6.0mph /  9.7km/h 15.0mph /  24.1km/h 95% 0.00in /  0mm
11:19 36.1 °F /  2.3 °C 34.8 °F /  1.6 °C 30.00in /  1015.8hPa WSW 6.0mph /  9.7km/h 11.0mph /  17.7km/h 95% 0.00in /  0mm
11:24 36.2 °F /  2.3 °C 34.9 °F /  1.6 °C 30.00in /  1015.8hPa WSW 6.0mph /  9.7km/h 11.0mph /  17.7km/h 95% 0.00in /  0mm
11:29 36.3 °F /  2.4 °C 35.0 °F /  1.7 °C 30.00in /  1015.8hPa WSW 6.0mph /  9.7km/h 12.0mph /  19.3km/h 95% 0.00in /  0mm
11:34 36.3 °F /  2.4 °C 35.0 °F /  1.7 °C 29.99in /  1015.5hPa SSW 7.0mph /  11.3km/h 11.0mph /  17.7km/h 95% 0.00in /  0mm
11:39 36.3 °F /  2.4 °C 35.0 °F /  1.7 °C 29.99in /  1015.5hPa WSW 8.0mph /  12.9km/h 13.0mph /  20.9km/h 95% 0.00in /  0mm
11:44 36.5 °F /  2.5 °C 35.2 °F /  1.8 °C 29.99in /  1015.5hPa WSW 8.0mph /  12.9km/h 14.0mph /  22.5km/h 95% 0.00in /  0mm
11:49 36.5 °F /  2.5 °C 35.2 °F /  1.8 °C 29.99in /  1015.5hPa WSW 7.0mph /  11.3km/h 14.0mph /  22.5km/h 95% 0.00in /  0mm
11:54 36.5 °F /  2.5 °C 34.9 °F /  1.6 °C 29.99in /  1015.5hPa WSW 7.0mph /  11.3km/h 13.0mph /  20.9km/h 94% 0.00in /  0mm
11:59 36.6 °F /  2.6 °C 35.0 °F /  1.7 °C 29.99in /  1015.5hPa WSW 7.0mph /  11.3km/h 17.0mph /  27.4km/h 94% 0.00in /  0mm
12:04 36.7 °F /  2.6 °C 35.1 °F /  1.7 °C 29.99in /  1015.5hPa WSW 4.0mph /  6.4km/h 12.0mph /  19.3km/h 94% 0.00in /  0mm
12:09 36.6 °F /  2.6 °C 35.0 °F /  1.7 °C 29.99in /  1015.5hPa West 4.0mph /  6.4km/h 17.0mph /  27.4km/h 94% 0.00in /  0mm
12:14 36.7 °F /  2.6 °C 35.1 °F /  1.7 °C 29.98in /  1015.1hPa WSW 7.0mph /  11.3km/h 17.0mph /  27.4km/h 94% 0.00in /  0mm
12:19 36.7 °F /  2.6 °C 35.1 °F /  1.7 °C 29.98in /  1015.1hPa WSW 8.0mph /  12.9km/h 16.0mph /  25.7km/h 94% 0.00in /  0mm
12:24 36.6 °F /  2.6 °C 35.0 °F /  1.7 °C 29.99in /  1015.5hPa WSW 9.0mph /  14.5km/h 16.0mph /  25.7km/h 94% 0.00in /  0mm
12:29 36.6 °F /  2.6 °C 35.0 °F /  1.7 °C 29.99in /  1015.5hPa West 9.0mph /  14.5km/h 19.0mph /  30.6km/h 94% 0.00in /  0mm
12:34 36.6 °F /  2.6 °C 35.0 °F /  1.7 °C 29.99in /  1015.5hPa West 8.0mph /  12.9km/h 16.0mph /  25.7km/h 94% 0.00in /  0mm
12:39 36.5 °F /  2.5 °C 34.9 °F /  1.6 °C 29.99in /  1015.5hPa NW 8.0mph /  12.9km/h 16.0mph /  25.7km/h 94% 0.00in /  0mm
12:44 36.5 °F /  2.5 °C 34.9 °F /  1.6 °C 29.99in /  1015.5hPa WSW 7.0mph /  11.3km/h 16.0mph /  25.7km/h 94% 0.00in /  0mm
12:49 36.5 °F /  2.5 °C 34.9 °F /  1.6 °C 29.99in /  1015.5hPa WSW 7.0mph /  11.3km/h 15.0mph /  24.1km/h 94% 0.00in /  0mm
12:54 36.5 °F /  2.5 °C 34.9 °F /  1.6 °C 29.99in /  1015.5hPa WSW 7.0mph /  11.3km/h 15.0mph /  24.1km/h 94% 0.00in /  0mm
12:59 36.7 °F /  2.6 °C 35.1 °F /  1.7 °C 29.99in /  1015.5hPa SW 10.0mph /  16.1km/h 17.0mph /  27.4km/h 94% 0.00in /  0mm
13:04 36.6 °F /  2.6 °C 35.0 °F /  1.7 °C 29.99in /  1015.5hPa SW 7.0mph /  11.3km/h 14.0mph /  22.5km/h 94% 0.00in /  0mm
13:09 36.5 °F /  2.5 °C 34.9 °F /  1.6 °C 29.99in /  1015.5hPa SW 5.0mph /  8km/h 15.0mph /  24.1km/h 94% 0.00in /  0mm
13:14 36.6 °F /  2.6 °C 35.0 °F /  1.7 °C 30.00in /  1015.8hPa WSW 8.0mph /  12.9km/h 15.0mph /  24.1km/h 94% 0.00in /  0mm
13:19 36.5 °F /  2.5 °C 34.9 °F /  1.6 °C 30.00in /  1015.8hPa WSW 7.0mph /  11.3km/h 18.0mph /  29km/h 94% 0.00in /  0mm
13:24 36.5 °F /  2.5 °C 34.9 °F /  1.6 °C 30.00in /  1015.8hPa WSW 7.0mph /  11.3km/h 18.0mph /  29km/h 94% 0.00in /  0mm
13:29 36.4 °F /  2.4 °C 34.8 °F /  1.6 °C 30.00in /  1015.8hPa WSW 7.0mph /  11.3km/h 16.0mph /  25.7km/h 94% 0.00in /  0mm
13:34 36.4 °F /  2.4 °C 34.8 °F /  1.6 °C 30.00in /  1015.8hPa WSW 5.0mph /  8km/h 15.0mph /  24.1km/h 94% 0.00in /  0mm
13:39 36.2 °F /  2.3 °C 34.6 °F /  1.4 °C 30.00in /  1015.8hPa West 9.0mph /  14.5km/h 16.0mph /  25.7km/h 94% 0.01in /  0.25mm
13:44 36.1 °F /  2.3 °C 34.5 °F /  1.4 °C 30.00in /  1015.8hPa WSW 8.0mph /  12.9km/h 16.0mph /  25.7km/h 94% 0.01in /  0.25mm
13:49 36.2 °F /  2.3 °C 34.9 °F /  1.6 °C 30.00in /  1015.8hPa WSW 7.0mph /  11.3km/h 15.0mph /  24.1km/h 95% 0.01in /  0.25mm
13:54 36.2 °F /  2.3 °C 34.6 °F /  1.4 °C 30.00in /  1015.8hPa WNW 6.0mph /  9.7km/h 13.0mph /  20.9km/h 94% 0.01in /  0.25mm
13:59 36.2 °F /  2.3 °C 34.9 °F /  1.6 °C 30.00in /  1015.8hPa WSW 3.0mph /  4.8km/h 11.0mph /  17.7km/h 95% 0.01in /  0.25mm
14:04 36.4 °F /  2.4 °C 35.1 °F /  1.7 °C 30.00in /  1015.8hPa WSW 3.0mph /  4.8km/h 13.0mph /  20.9km/h 95% 0.01in /  0.25mm
14:09 36.4 °F /  2.4 °C 35.1 °F /  1.7 °C 30.00in /  1015.8hPa WSW 11.0mph /  17.7km/h 15.0mph /  24.1km/h 95% 0.01in /  0.25mm
14:14 36.2 °F /  2.3 °C 34.9 °F /  1.6 °C 30.00in /  1015.8hPa West 4.0mph /  6.4km/h 18.0mph /  29km/h 95% 0.01in /  0.25mm
14:19 36.2 °F /  2.3 °C 34.9 °F /  1.6 °C 30.00in /  1015.8hPa WSW 7.0mph /  11.3km/h 18.0mph /  29km/h 95% 0.01in /  0.25mm
14:24 36.2 °F /  2.3 °C 34.9 °F /  1.6 °C 30.00in /  1015.8hPa WSW 7.0mph /  11.3km/h 17.0mph /  27.4km/h 95% 0.01in /  0.25mm
14:29 36.1 °F /  2.3 °C 34.5 °F /  1.4 °C 30.01in /  1016.1hPa WSW 8.0mph /  12.9km/h 17.0mph /  27.4km/h 94% 0.01in /  0.25mm
14:34 36.1 °F /  2.3 °C 34.5 °F /  1.4 °C 30.01in /  1016.1hPa WSW 8.0mph /  12.9km/h 16.0mph /  25.7km/h 94% 0.01in /  0.25mm
14:39 36.1 °F /  2.3 °C 34.8 °F /  1.6 °C 30.01in /  1016.1hPa WSW 4.0mph /  6.4km/h 11.0mph /  17.7km/h 95% 0.00in /  0mm
14:44 36.0 °F /  2.2 °C 34.4 °F /  1.3 °C 30.01in /  1016.1hPa NNW 6.0mph /  9.7km/h 14.0mph /  22.5km/h 94% 0.00in /  0mm
14:49 36.1 °F /  2.3 °C 34.8 °F /  1.6 °C 30.01in /  1016.1hPa West 3.0mph /  4.8km/h 11.0mph /  17.7km/h 95% 0.00in /  0mm
14:54 36.1 °F /  2.3 °C 34.8 °F /  1.6 °C 30.01in /  1016.1hPa SW 8.0mph /  12.9km/h 14.0mph /  22.5km/h 95% 0.00in /  0mm
14:59 36.0 °F /  2.2 °C 34.7 °F /  1.5 °C 30.01in /  1016.1hPa SW 9.0mph /  14.5km/h 15.0mph /  24.1km/h 95% 0.00in /  0mm
15:04 35.9 °F /  2.2 °C 34.6 °F /  1.4 °C 30.01in /  1016.1hPa WSW 3.0mph /  4.8km/h 13.0mph /  20.9km/h 95% 0.00in /  0mm
15:09 36.0 °F /  2.2 °C 34.7 °F /  1.5 °C 30.02in /  1016.5hPa West 7.0mph /  11.3km/h 13.0mph /  20.9km/h 95% 0.00in /  0mm
15:14 35.9 °F /  2.2 °C 34.6 °F /  1.4 °C 30.01in /  1016.1hPa WSW 7.0mph /  11.3km/h 13.0mph /  20.9km/h 95% 0.00in /  0mm
15:19 36.0 °F /  2.2 °C 34.7 °F /  1.5 °C 30.02in /  1016.5hPa WSW 6.0mph /  9.7km/h 13.0mph /  20.9km/h 95% 0.00in /  0mm
15:24 35.9 °F /  2.2 °C 34.6 °F /  1.4 °C 30.02in /  1016.5hPa WSW 6.0mph /  9.7km/h 12.0mph /  19.3km/h 95% 0.00in /  0mm
15:29 35.9 °F /  2.2 °C 34.6 °F /  1.4 °C 30.03in /  1016.8hPa WSW 8.0mph /  12.9km/h 18.0mph /  29km/h 95% 0.00in /  0mm
15:34 35.8 °F /  2.1 °C 34.5 °F /  1.4 °C 30.03in /  1016.8hPa WSW 10.0mph /  16.1km/h 13.0mph /  20.9km/h 95% 0.00in /  0mm
15:39 35.8 °F /  2.1 °C 34.5 °F /  1.4 °C 30.03in /  1016.8hPa SW 9.0mph /  14.5km/h 17.0mph /  27.4km/h 95% 0.00in /  0mm
15:44 35.7 °F /  2.1 °C 34.4 °F /  1.3 °C 30.04in /  1017.2hPa West 6.0mph /  9.7km/h 15.0mph /  24.1km/h 95% 0.00in /  0mm
15:49 35.7 °F /  2.1 °C 34.4 °F /  1.3 °C 30.04in /  1017.2hPa WSW 8.0mph /  12.9km/h 16.0mph /  25.7km/h 95% 0.00in /  0mm
15:54 35.7 °F /  2.1 °C 34.4 °F /  1.3 °C 30.04in /  1017.2hPa WSW 7.0mph /  11.3km/h 16.0mph /  25.7km/h 95% 0.00in /  0mm
15:59 35.7 °F /  2.1 °C 34.4 °F /  1.3 °C 30.04in /  1017.2hPa WSW 3.0mph /  4.8km/h 12.0mph /  19.3km/h 95% 0.00in /  0mm
16:04 35.7 °F /  2.1 °C 34.4 °F /  1.3 °C 30.04in /  1017.2hPa SW 7.0mph /  11.3km/h 15.0mph /  24.1km/h 95% 0.00in /  0mm
16:09 35.7 °F /  2.1 °C 34.4 °F /  1.3 °C 30.04in /  1017.2hPa SW 8.0mph /  12.9km/h 11.0mph /  17.7km/h 95% 0.00in /  0mm
16:14 35.7 °F /  2.1 °C 34.4 °F /  1.3 °C 30.04in /  1017.2hPa WSW 8.0mph /  12.9km/h 14.0mph /  22.5km/h 95% 0.00in /  0mm
16:19 35.7 °F /  2.1 °C 34.4 °F /  1.3 °C 30.04in /  1017.2hPa SW 6.0mph /  9.7km/h 11.0mph /  17.7km/h 95% 0.00in /  0mm
16:24 35.7 °F /  2.1 °C 34.4 °F /  1.3 °C 30.04in /  1017.2hPa WSW 6.0mph /  9.7km/h 11.0mph /  17.7km/h 95% 0.00in /  0mm
16:29 35.6 °F /  2 °C 34.3 °F /  1.3 °C 30.04in /  1017.2hPa WSW 6.0mph /  9.7km/h 11.0mph /  17.7km/h 95% 0.00in /  0mm
16:34 35.7 °F /  2.1 °C 34.4 °F /  1.3 °C 30.04in /  1017.2hPa WSW 7.0mph /  11.3km/h 14.0mph /  22.5km/h 95% 0.00in /  0mm
16:39 35.6 °F /  2 °C 34.3 °F /  1.3 °C 30.04in /  1017.2hPa SW 5.0mph /  8km/h 12.0mph /  19.3km/h 95% 0.00in /  0mm
16:44 35.6 °F /  2 °C 34.3 °F /  1.3 °C 30.04in /  1017.2hPa West 13.0mph /  20.9km/h 13.0mph /  20.9km/h 95% 0.00in /  0mm
16:49 35.6 °F /  2 °C 34.3 °F /  1.3 °C 30.05in /  1017.5hPa West 3.0mph /  4.8km/h 13.0mph /  20.9km/h 95% 0.00in /  0mm
16:54 35.5 °F /  1.9 °C 34.2 °F /  1.2 °C 30.05in /  1017.5hPa WSW 6.0mph /  9.7km/h 13.0mph /  20.9km/h 95% 0.00in /  0mm
16:59 35.5 °F /  1.9 °C 34.2 °F /  1.2 °C 30.04in /  1017.2hPa WSW 6.0mph /  9.7km/h 11.0mph /  17.7km/h 95% 0.00in /  0mm
17:04 35.5 °F /  1.9 °C 34.2 °F /  1.2 °C 30.05in /  1017.5hPa WSW 5.0mph /  8km/h 11.0mph /  17.7km/h 95% 0.00in /  0mm
17:09 35.4 °F /  1.9 °C 34.1 °F /  1.2 °C 30.05in /  1017.5hPa WSW 5.0mph /  8km/h 14.0mph /  22.5km/h 95% 0.00in /  0mm
17:14 35.4 °F /  1.9 °C 34.1 °F /  1.2 °C 30.05in /  1017.5hPa WSW 3.0mph /  4.8km/h 12.0mph /  19.3km/h 95% 0.00in /  0mm
17:19 35.4 °F /  1.9 °C 34.1 °F /  1.2 °C 30.05in /  1017.5hPa West 4.0mph /  6.4km/h 10.0mph /  16.1km/h 95% 0.00in /  0mm
17:24 35.3 °F /  1.8 °C 34.0 °F /  1.1 °C 30.05in /  1017.5hPa SW 6.0mph /  9.7km/h 14.0mph /  22.5km/h 95% 0.00in /  0mm
17:29 35.3 °F /  1.8 °C 34.0 °F /  1.1 °C 30.04in /  1017.2hPa WSW 7.0mph /  11.3km/h 14.0mph /  22.5km/h 95% 0.00in /  0mm
17:34 35.3 °F /  1.8 °C 34.0 °F /  1.1 °C 30.04in /  1017.2hPa WSW 6.0mph /  9.7km/h 14.0mph /  22.5km/h 95% 0.00in /  0mm
17:39 35.3 °F /  1.8 °C 34.0 °F /  1.1 °C 30.04in /  1017.2hPa SW 8.0mph /  12.9km/h 9.0mph /  14.5km/h 95% 0.01in /  0.25mm
17:44 35.3 °F /  1.8 °C 34.0 °F /  1.1 °C 30.04in /  1017.2hPa SW 11.0mph /  17.7km/h 13.0mph /  20.9km/h 95% 0.01in /  0.25mm
17:49 35.3 °F /  1.8 °C 34.0 °F /  1.1 °C 30.05in /  1017.5hPa WSW 5.0mph /  8km/h 14.0mph /  22.5km/h 95% 0.01in /  0.25mm
17:54 35.3 °F /  1.8 °C 34.0 °F /  1.1 °C 30.05in /  1017.5hPa West 4.0mph /  6.4km/h 12.0mph /  19.3km/h 95% 0.01in /  0.25mm
17:59 35.3 °F /  1.8 °C 34.0 °F /  1.1 °C 30.05in /  1017.5hPa WSW 5.0mph /  8km/h 12.0mph /  19.3km/h 95% 0.01in /  0.25mm
18:04 35.3 °F /  1.8 °C 34.0 °F /  1.1 °C 30.06in /  1017.8hPa WSW 6.0mph /  9.7km/h 12.0mph /  19.3km/h 95% 0.01in /  0.25mm
18:09 35.3 °F /  1.8 °C 34.0 °F /  1.1 °C 30.06in /  1017.8hPa WSW 6.0mph /  9.7km/h 13.0mph /  20.9km/h 95% 0.01in /  0.25mm
18:14 35.4 °F /  1.9 °C 34.1 °F /  1.2 °C 30.06in /  1017.8hPa WSW 6.0mph /  9.7km/h 13.0mph /  20.9km/h 95% 0.01in /  0.25mm
18:19 35.4 °F /  1.9 °C 34.1 °F /  1.2 °C 30.05in /  1017.5hPa WSW 6.0mph /  9.7km/h 10.0mph /  16.1km/h 95% 0.01in /  0.25mm
18:24 35.3 °F /  1.8 °C 34.0 °F /  1.1 °C 30.05in /  1017.5hPa SW 9.0mph /  14.5km/h 12.0mph /  19.3km/h 95% 0.01in /  0.25mm
18:29 35.4 °F /  1.9 °C 34.1 °F /  1.2 °C 30.05in /  1017.5hPa SW 6.0mph /  9.7km/h 13.0mph /  20.9km/h 95% 0.01in /  0.25mm
18:34 35.4 °F /  1.9 °C 34.1 °F /  1.2 °C 30.04in /  1017.2hPa SW 7.0mph /  11.3km/h 14.0mph /  22.5km/h 95% 0.01in /  0.25mm
18:39 35.4 °F /  1.9 °C 34.1 °F /  1.2 °C 30.04in /  1017.2hPa SW 7.0mph /  11.3km/h 14.0mph /  22.5km/h 95% 0.00in /  0mm
18:44 35.4 °F /  1.9 °C 34.1 °F /  1.2 °C 30.04in /  1017.2hPa SW 9.0mph /  14.5km/h 12.0mph /  19.3km/h 95% 0.00in /  0mm
18:49 35.3 °F /  1.8 °C 34.0 °F /  1.1 °C 30.04in /  1017.2hPa WSW 5.0mph /  8km/h 14.0mph /  22.5km/h 95% 0.00in /  0mm
18:54 35.4 °F /  1.9 °C 34.1 °F /  1.2 °C 30.04in /  1017.2hPa WSW 8.0mph /  12.9km/h 10.0mph /  16.1km/h 95% 0.00in /  0mm
18:59 35.3 °F /  1.8 °C 34.0 °F /  1.1 °C 30.04in /  1017.2hPa WSW 7.0mph /  11.3km/h 12.0mph /  19.3km/h 95% 0.00in /  0mm
19:04 35.4 °F /  1.9 °C 34.1 °F /  1.2 °C 30.03in /  1016.8hPa SW 5.0mph /  8km/h 14.0mph /  22.5km/h 95% 0.00in /  0mm
19:09 35.3 °F /  1.8 °C 34.0 °F /  1.1 °C 30.03in /  1016.8hPa SW 7.0mph /  11.3km/h 14.0mph /  22.5km/h 95% 0.00in /  0mm
19:14 35.4 °F /  1.9 °C 34.1 °F /  1.2 °C 30.03in /  1016.8hPa SW 6.0mph /  9.7km/h 12.0mph /  19.3km/h 95% 0.00in /  0mm
19:19 35.3 °F /  1.8 °C 34.0 °F /  1.1 °C 30.03in /  1016.8hPa SW 7.0mph /  11.3km/h 16.0mph /  25.7km/h 95% 0.00in /  0mm
19:24 35.4 °F /  1.9 °C 34.1 °F /  1.2 °C 30.03in /  1016.8hPa SW 8.0mph /  12.9km/h 16.0mph /  25.7km/h 95% 0.00in /  0mm
19:29 35.4 °F /  1.9 °C 34.1 °F /  1.2 °C 30.03in /  1016.8hPa WSW 9.0mph /  14.5km/h 15.0mph /  24.1km/h 95% 0.00in /  0mm
19:34 35.5 °F /  1.9 °C 34.2 °F /  1.2 °C 30.03in /  1016.8hPa WSW 7.0mph /  11.3km/h 14.0mph /  22.5km/h 95% 0.00in /  0mm
19:39 35.4 °F /  1.9 °C 34.1 °F /  1.2 °C 30.04in /  1017.2hPa WSW 7.0mph /  11.3km/h 14.0mph /  22.5km/h 95% 0.00in /  0mm
19:44 35.5 °F /  1.9 °C 34.2 °F /  1.2 °C 30.04in /  1017.2hPa WSW 7.0mph /  11.3km/h 15.0mph /  24.1km/h 95% 0.00in /  0mm
19:49 35.5 °F /  1.9 °C 34.2 °F /  1.2 °C 30.04in /  1017.2hPa SW 8.0mph /  12.9km/h 17.0mph /  27.4km/h 95% 0.00in /  0mm
19:54 35.5 °F /  1.9 °C 34.2 °F /  1.2 °C 30.04in /  1017.2hPa WNW 5.0mph /  8km/h 13.0mph /  20.9km/h 95% 0.00in /  0mm
19:59 35.5 °F /  1.9 °C 34.2 °F /  1.2 °C 30.04in /  1017.2hPa SSE 9.0mph /  14.5km/h 15.0mph /  24.1km/h 95% 0.00in /  0mm
20:04 35.5 °F /  1.9 °C 34.5 °F /  1.4 °C 30.04in /  1017.2hPa WSW 9.0mph /  14.5km/h 16.0mph /  25.7km/h 96% 0.00in /  0mm
20:09 35.5 °F /  1.9 °C 34.2 °F /  1.2 °C 30.04in /  1017.2hPa WSW 8.0mph /  12.9km/h 17.0mph /  27.4km/h 95% 0.00in /  0mm
20:14 35.5 °F /  1.9 °C 34.5 °F /  1.4 °C 30.04in /  1017.2hPa WSW 7.0mph /  11.3km/h 17.0mph /  27.4km/h 96% 0.00in /  0mm
20:19 35.5 °F /  1.9 °C 34.2 °F /  1.2 °C 30.04in /  1017.2hPa WSW 7.0mph /  11.3km/h 14.0mph /  22.5km/h 95% 0.00in /  0mm
20:24 35.5 °F /  1.9 °C 34.2 °F /  1.2 °C 30.04in /  1017.2hPa WSW 8.0mph /  12.9km/h 16.0mph /  25.7km/h 95% 0.00in /  0mm
20:29 35.5 °F /  1.9 °C 34.2 °F /  1.2 °C 30.04in /  1017.2hPa West 8.0mph /  12.9km/h 15.0mph /  24.1km/h 95% 0.00in /  0mm
20:34 35.5 °F /  1.9 °C 34.2 °F /  1.2 °C 30.04in /  1017.2hPa WSW 5.0mph /  8km/h 16.0mph /  25.7km/h 95% 0.00in /  0mm
20:39 35.4 °F /  1.9 °C 34.1 °F /  1.2 °C 30.04in /  1017.2hPa WSW 7.0mph /  11.3km/h 16.0mph /  25.7km/h 95% 0.01in /  0.25mm
20:44 35.4 °F /  1.9 °C 34.1 °F /  1.2 °C 30.04in /  1017.2hPa SW 7.0mph /  11.3km/h 16.0mph /  25.7km/h 95% 0.01in /  0.25mm
20:49 35.4 °F /  1.9 °C 34.1 °F /  1.2 °C 30.04in /  1017.2hPa WSW 12.0mph /  19.3km/h 13.0mph /  20.9km/h 95% 0.01in /  0.25mm
20:54 35.4 °F /  1.9 °C 34.1 °F /  1.2 °C 30.04in /  1017.2hPa SW 8.0mph /  12.9km/h 14.0mph /  22.5km/h 95% 0.01in /  0.25mm
20:59 35.4 °F /  1.9 °C 34.1 °F /  1.2 °C 30.03in /  1016.8hPa WSW 5.0mph /  8km/h 15.0mph /  24.1km/h 95% 0.01in /  0.25mm
21:04 35.4 °F /  1.9 °C 34.1 °F /  1.2 °C 30.03in /  1016.8hPa West 5.0mph /  8km/h 12.0mph /  19.3km/h 95% 0.01in /  0.25mm
21:09 35.4 °F /  1.9 °C 34.4 °F /  1.3 °C 30.03in /  1016.8hPa SW 7.0mph /  11.3km/h 14.0mph /  22.5km/h 96% 0.01in /  0.25mm
21:14 35.4 °F /  1.9 °C 34.1 °F /  1.2 °C 30.02in /  1016.5hPa SW 7.0mph /  11.3km/h 16.0mph /  25.7km/h 95% 0.01in /  0.25mm
21:19 35.4 °F /  1.9 °C 34.4 °F /  1.3 °C 30.03in /  1016.8hPa SW 8.0mph /  12.9km/h 19.0mph /  30.6km/h 96% 0.01in /  0.25mm
21:24 35.5 °F /  1.9 °C 34.5 °F /  1.4 °C 30.03in /  1016.8hPa WSW 8.0mph /  12.9km/h 19.0mph /  30.6km/h 96% 0.01in /  0.25mm
21:29 35.5 °F /  1.9 °C 34.5 °F /  1.4 °C 30.03in /  1016.8hPa SW 7.0mph /  11.3km/h 12.0mph /  19.3km/h 96% 0.01in /  0.25mm
21:34 35.5 °F /  1.9 °C 34.5 °F /  1.4 °C 30.02in /  1016.5hPa WSW 8.0mph /  12.9km/h 14.0mph /  22.5km/h 96% 0.01in /  0.25mm
21:39 35.5 °F /  1.9 °C 34.5 °F /  1.4 °C 30.03in /  1016.8hPa WSW 6.0mph /  9.7km/h 15.0mph /  24.1km/h 96% 0.00in /  0mm
21:44 35.5 °F /  1.9 °C 34.5 °F /  1.4 °C 30.02in /  1016.5hPa SW 14.0mph /  22.5km/h 18.0mph /  29km/h 96% 0.00in /  0mm
21:49 35.5 °F /  1.9 °C 34.5 °F /  1.4 °C 30.03in /  1016.8hPa South 6.0mph /  9.7km/h 15.0mph /  24.1km/h 96% 0.00in /  0mm
21:54 35.5 °F /  1.9 °C 34.5 °F /  1.4 °C 30.03in /  1016.8hPa SW 10.0mph /  16.1km/h 13.0mph /  20.9km/h 96% 0.00in /  0mm
21:59 35.5 °F /  1.9 °C 34.5 °F /  1.4 °C 30.03in /  1016.8hPa West 7.0mph /  11.3km/h 13.0mph /  20.9km/h 96% 0.00in /  0mm
22:04 35.6 °F /  2 °C 34.6 °F /  1.4 °C 30.03in /  1016.8hPa SW 5.0mph /  8km/h 16.0mph /  25.7km/h 96% 0.00in /  0mm
22:09 35.5 °F /  1.9 °C 34.5 °F /  1.4 °C 30.03in /  1016.8hPa SSW 2.0mph /  3.2km/h 14.0mph /  22.5km/h 96% 0.00in /  0mm
22:14 35.6 °F /  2 °C 34.6 °F /  1.4 °C 30.03in /  1016.8hPa WSW 6.0mph /  9.7km/h 18.0mph /  29km/h 96% 0.00in /  0mm
22:19 35.6 °F /  2 °C 34.6 °F /  1.4 °C 30.03in /  1016.8hPa SW 8.0mph /  12.9km/h 18.0mph /  29km/h 96% 0.00in /  0mm
22:24 35.5 °F /  1.9 °C 34.5 °F /  1.4 °C 30.03in /  1016.8hPa SW 8.0mph /  12.9km/h 16.0mph /  25.7km/h 96% 0.00in /  0mm
22:29 35.6 °F /  2 °C 34.6 °F /  1.4 °C 30.03in /  1016.8hPa WSW 8.0mph /  12.9km/h 16.0mph /  25.7km/h 96% 0.00in /  0mm
22:34 35.6 °F /  2 °C 34.6 °F /  1.4 °C 30.04in /  1017.2hPa WSW 8.0mph /  12.9km/h 16.0mph /  25.7km/h 96% 0.00in /  0mm
22:39 35.7 °F /  2.1 °C 34.7 °F /  1.5 °C 30.04in /  1017.2hPa WSW 8.0mph /  12.9km/h 15.0mph /  24.1km/h 96% 0.00in /  0mm
22:44 35.7 °F /  2.1 °C 34.7 °F /  1.5 °C 30.04in /  1017.2hPa SW 9.0mph /  14.5km/h 16.0mph /  25.7km/h 96% 0.00in /  0mm
22:49 35.8 °F /  2.1 °C 34.8 °F /  1.6 °C 30.05in /  1017.5hPa SW 6.0mph /  9.7km/h 15.0mph /  24.1km/h 96% 0.00in /  0mm
22:54 35.9 °F /  2.2 °C 34.9 °F /  1.6 °C 30.04in /  1017.2hPa SW 8.0mph /  12.9km/h 17.0mph /  27.4km/h 96% 0.00in /  0mm
22:59 35.9 °F /  2.2 °C 34.9 °F /  1.6 °C 30.05in /  1017.5hPa West 9.0mph /  14.5km/h 15.0mph /  24.1km/h 96% 0.00in /  0mm
23:04 35.9 °F /  2.2 °C 34.9 °F /  1.6 °C 30.04in /  1017.2hPa South 7.0mph /  11.3km/h 15.0mph /  24.1km/h 96% 0.00in /  0mm
23:09 35.9 °F /  2.2 °C 34.9 °F /  1.6 °C 30.05in /  1017.5hPa West 8.0mph /  12.9km/h 13.0mph /  20.9km/h 96% 0.00in /  0mm
23:14 35.9 °F /  2.2 °C 34.9 °F /  1.6 °C 30.05in /  1017.5hPa SW 8.0mph /  12.9km/h 15.0mph /  24.1km/h 96% 0.00in /  0mm
23:19 35.9 °F /  2.2 °C 34.9 °F /  1.6 °C 30.05in /  1017.5hPa WSW 8.0mph /  12.9km/h 15.0mph /  24.1km/h 96% 0.01in /  0.25mm
23:24 36.0 °F /  2.2 °C 35.0 °F /  1.7 °C 30.05in /  1017.5hPa WSW 8.0mph /  12.9km/h 17.0mph /  27.4km/h 96% 0.01in /  0.25mm
23:29 36.0 °F /  2.2 °C 35.0 °F /  1.7 °C 30.05in /  1017.5hPa WSW 8.0mph /  12.9km/h 17.0mph /  27.4km/h 96% 0.01in /  0.25mm
23:34 36.0 °F /  2.2 °C 35.0 °F /  1.7 °C 30.05in /  1017.5hPa WSW 8.0mph /  12.9km/h 16.0mph /  25.7km/h 96% 0.01in /  0.25mm
23:39 36.0 °F /  2.2 °C 35.0 °F /  1.7 °C 30.05in /  1017.5hPa WSW 8.0mph /  12.9km/h 16.0mph /  25.7km/h 96% 0.01in /  0.25mm
23:44 36.0 °F /  2.2 °C 35.0 °F /  1.7 °C 30.05in /  1017.5hPa WSW 8.0mph /  12.9km/h 18.0mph /  29km/h 96% 0.01in /  0.25mm
23:49 36.1 °F /  2.3 °C 35.1 °F /  1.7 °C 30.05in /  1017.5hPa SW 11.0mph /  17.7km/h 15.0mph /  24.1km/h 96% 0.01in /  0.25mm
23:54 36.1 °F /  2.3 °C 35.1 °F /  1.7 °C 30.05in /  1017.5hPa WSW 9.0mph /  14.5km/h 17.0mph /  27.4km/h 96% 0.01in /  0.25mm
23:59 36.1 °F /  2.3 °C 35.1 °F /  1.7 °C 30.05in /  1017.5hPa WSW 5.0mph /  8km/h 18.0mph /  29km/h 96% 0.01in /  0.25mm
Buffalo, New York, USA
Compliments of Weather Underground - 2.5 mb